Time;durP1;ratioP1;P1;durP2;ratioP2;P2;SDS_P1;SDS_P2;PMS_P1;PMS_P2;Temp;Humidity;BMP_temperature;BMP_pressure;BME280_temperature;BME280_humidity;BME280_pressure;Samples;Min_cycle;Max_cycle;Signal;HPM_P1;HPM_P2
2022/07/04 00:00:43;;;;;;;11.43;4.12;;;;;;;22.06;56.59;100341.94;5548446;32;35073;-85
2022/07/04 00:03:46;;;;;;;4.55;4.15;;;;;;;22.05;56.13;100345.66;5547881;32;34361;-89
2022/07/04 00:06:49;;;;;;;3.97;3.60;;;;;;;22.04;55.98;100343.97;5548216;32;33775;-90
2022/07/04 00:09:51;;;;;;;6.43;4.03;;;;;;;22.00;56.17;100339.84;5548046;32;33861;-90
2022/07/04 00:12:54;;;;;;;6.57;3.90;;;;;;;22.06;55.96;100340.09;5547900;32;33576;-90
2022/07/04 00:15:57;;;;;;;6.32;4.00;;;;;;;22.30;54.90;100346.78;5548111;32;34411;-86
2022/07/04 00:19:01;;;;;;;4.93;4.40;;;;;;;22.25;55.01;100338.28;5547859;32;34651;-86
2022/07/04 00:22:04;;;;;;;5.10;4.18;;;;;;;22.10;55.58;100340.66;5547384;32;34198;-86
2022/07/04 00:25:07;;;;;;;4.37;3.97;;;;;;;22.04;56.25;100338.56;5548439;32;34583;-86
2022/07/04 00:28:10;;;;;;;4.43;3.90;;;;;;;21.94;56.30;100338.63;5547771;32;33616;-86
2022/07/04 00:31:13;;;;;;;5.35;3.78;;;;;;;21.81;56.75;100338.97;5546528;32;34365;-86
2022/07/04 00:34:16;;;;;;;5.65;4.03;;;;;;;21.68;57.56;100340.16;5548244;32;34184;-86
2022/07/04 00:37:18;;;;;;;4.87;4.37;;;;;;;21.59;58.43;100346.47;5548438;32;34001;-86
2022/07/04 00:40:21;;;;;;;5.57;3.95;;;;;;;21.44;59.10;100343.41;5549098;32;36957;-86
2022/07/04 00:43:28;;;;;;;6.22;4.35;;;;;;;21.30;59.53;100346.56;5548190;32;33994;-86
2022/07/04 00:46:31;;;;;;;6.78;4.20;;;;;;;21.26;60.02;100344.16;5548761;32;35388;-86
2022/07/04 00:49:34;;;;;;;7.22;4.22;;;;;;;21.19;60.01;100342.19;5548320;32;33969;-86
2022/07/04 00:52:37;;;;;;;4.50;4.10;;;;;;;21.11;59.92;100343.78;5540384;32;32336;-86
2022/07/04 00:55:41;;;;;;;4.45;4.03;;;;;;;21.05;59.92;100340.81;5559343;32;35107;-86
2022/07/04 00:58:43;;;;;;;3.95;3.65;;;;;;;20.98;59.95;100338.69;5548714;32;35404;-86
2022/07/04 01:01:46;;;;;;;4.62;4.20;;;;;;;20.95;60.00;100347.09;5534861;32;32863;-86
2022/07/04 01:04:49;;;;;;;4.87;4.05;;;;;;;20.98;59.99;100345.97;5553455;32;34105;-86
2022/07/04 01:07:53;;;;;;;5.72;4.53;;;;;;;20.95;59.88;100341.72;5563064;32;36557;-86
2022/07/04 01:10:56;;;;;;;4.55;4.18;;;;;;;21.05;59.62;100344.38;5560520;32;33872;-86
2022/07/04 01:13:58;;;;;;;4.95;4.20;;;;;;;20.98;59.61;100346.78;5562590;32;33886;-86
2022/07/04 01:17:01;;;;;;;4.50;4.10;;;;;;;20.88;59.82;100354.06;5561812;32;35377;-85
2022/07/04 01:20:04;;;;;;;4.55;4.10;;;;;;;20.92;59.70;100349.22;5549209;32;34726;-86
2022/07/04 01:23:07;;;;;;;6.62;4.78;;;;;;;20.87;59.98;100350.50;5551813;32;33882;-86
2022/07/04 01:26:11;;;;;;;4.32;3.87;;;;;;;20.76;60.35;100349.81;5563689;32;34904;-86
2022/07/04 01:29:14;;;;;;;6.22;4.32;;;;;;;20.68;60.45;100351.38;5563813;32;34285;-86
2022/07/04 01:32:17;;;;;;;4.70;4.22;;;;;;;20.71;60.55;100342.97;5547386;32;33888;-86
2022/07/04 01:35:20;;;;;;;5.65;4.30;;;;;;;20.72;60.46;100360.84;5548463;32;34574;-85
2022/07/04 01:38:23;;;;;;;7.82;4.30;;;;;;;20.86;59.64;100351.50;5551090;32;34959;-85
2022/07/04 01:41:32;;;;;;;5.55;4.30;;;;;;;21.04;59.29;100347.22;5562450;32;34387;-86
2022/07/04 01:44:35;;;;;;;5.75;4.78;;;;;;;20.87;59.66;100347.81;5565669;32;34877;-86
2022/07/04 01:47:39;;;;;;;7.35;4.60;;;;;;;20.83;60.03;100342.84;5565460;32;35074;-86
2022/07/04 01:50:41;;;;;;;5.78;4.50;;;;;;;20.74;60.68;100345.41;5554206;32;34087;-85
2022/07/04 01:53:44;;;;;;;4.95;4.55;;;;;;;20.65;61.65;100348.94;5550067;32;34109;-86
2022/07/04 01:56:47;;;;;;;5.20;4.70;;;;;;;20.68;61.64;100355.91;5536722;32;32442;-86
2022/07/04 02:03:11;;;;;;;6.18;4.78;;;;;;;20.48;62.42;100358.59;5549701;32;34080;-86
2022/07/04 02:06:14;;;;;;;6.50;5.22;;;;;;;20.28;63.71;100361.28;5549669;32;34278;-85
2022/07/04 02:09:17;;;;;;;7.30;4.80;;;;;;;20.25;64.73;100356.19;5549611;32;34026;-88
2022/07/04 02:15:41;;;;;;;;;;;;;;;20.20;64.21;100359.28;5549247;32;34621;-86
2022/07/04 02:18:44;;;;;;;5.85;5.10;;;;;;;20.01;65.37;100365.47;5549692;32;35365;-86
2022/07/04 02:21:46;;;;;;;7.75;5.00;;;;;;;20.03;64.75;100368.03;5549405;32;34956;-86
2022/07/04 02:24:49;;;;;;;12.77;4.53;;;;;;;19.95;64.85;100371.38;5549249;32;34145;-87
2022/07/04 02:27:52;;;;;;;5.37;4.90;;;;;;;19.95;64.23;100366.00;5549012;32;34312;-86
2022/07/04 02:30:55;;;;;;;7.43;5.03;;;;;;;19.99;64.11;100363.91;5549022;32;34669;-86
2022/07/04 02:33:58;;;;;;;6.28;4.68;;;;;;;20.09;63.15;100353.16;5549097;32;34806;-86
2022/07/04 02:37:01;;;;;;;5.32;4.82;;;;;;;20.29;62.73;100359.44;5548989;32;34019;-86
2022/07/04 02:40:04;;;;;;;5.10;4.60;;;;;;;20.29;62.23;100357.59;5549098;32;34434;-86
2022/07/04 02:43:07;;;;;;;5.50;4.97;;;;;;;20.36;62.10;100355.19;5549000;32;34746;-86
2022/07/04 02:46:10;;;;;;;4.87;4.47;;;;;;;20.40;62.26;100367.38;5549364;32;33856;-86
2022/07/04 02:49:12;;;;;;;6.80;5.20;;;;;;;20.44;62.37;100367.94;5549595;32;35128;-86
2022/07/04 02:52:15;;;;;;;5.47;4.75;;;;;;;20.46;62.13;100363.25;5549588;32;34972;-86
2022/07/04 02:55:18;;;;;;;5.35;4.85;;;;;;;20.42;62.33;100373.47;5548682;32;34166;-87
2022/07/04 02:58:20;;;;;;;5.25;4.78;;;;;;;20.37;62.63;100370.34;5548651;32;34613;-86
2022/07/04 03:01:23;;;;;;;5.40;4.90;;;;;;;20.36;62.66;100378.59;5549079;32;34705;-87
2022/07/04 03:04:26;;;;;;;5.68;4.78;;;;;;;20.33;62.79;100377.03;5549013;32;34209;-87
2022/07/04 03:07:29;;;;;;;5.45;4.97;;;;;;;20.34;63.27;100378.72;5549695;32;33835;-86
2022/07/04 03:10:31;;;;;;;5.47;4.97;;;;;;;20.31;62.94;100370.91;5549468;32;34134;-86
2022/07/04 03:13:39;;;;;;;7.00;5.47;;;;;;;20.27;63.31;100369.50;5548622;32;34195;-85
2022/07/04 03:16:42;;;;;;;6.10;5.00;;;;;;;20.35;63.06;100375.03;5549466;32;33786;-86
2022/07/04 03:19:45;;;;;;;5.72;5.22;;;;;;;20.38;62.96;100374.78;5551163;32;34396;-85
2022/07/04 03:22:47;;;;;;;5.28;4.80;;;;;;;20.50;62.90;100363.81;5558166;32;34017;-86
2022/07/04 03:25:50;;;;;;;11.02;5.35;;;;;;;20.57;62.60;100365.81;5563788;32;34390;-85
2022/07/04 03:28:53;;;;;;;5.72;5.22;;;;;;;20.77;61.68;100373.06;5556365;32;34829;-86
2022/07/04 03:31:56;;;;;;;5.55;5.00;;;;;;;20.94;60.63;100368.81;5563496;32;33870;-85
2022/07/04 03:34:58;;;;;;;5.65;4.68;;;;;;;21.03;60.08;100365.25;5556243;32;34498;-86
2022/07/04 03:38:01;;;;;;;6.25;5.20;;;;;;;21.08;60.24;100368.34;5535376;32;34322;-85
2022/07/04 03:41:03;;;;;;;6.45;5.18;;;;;;;21.10;60.51;100366.37;5548999;32;34104;-86
2022/07/04 03:44:06;;;;;;;5.82;5.10;;;;;;;21.17;60.16;100361.22;5549243;32;35399;-86
2022/07/04 03:47:09;;;;;;;9.40;5.32;;;;;;;21.16;60.39;100362.22;5534830;32;32724;-86
2022/07/04 03:50:12;;;;;;;5.93;5.10;;;;;;;21.17;60.33;100358.53;5548668;32;33962;-86
2022/07/04 03:53:15;;;;;;;5.50;5.00;;;;;;;21.37;59.37;100372.81;5548519;32;34110;-86
2022/07/04 03:56:18;;;;;;;7.20;5.32;;;;;;;21.50;59.26;100363.53;5548402;32;34039;-86
2022/07/04 03:59:21;;;;;;;6.32;5.20;;;;;;;21.52;58.57;100362.37;5548908;32;33952;-86
2022/07/04 04:02:24;;;;;;;5.47;4.97;;;;;;;21.55;58.97;100358.53;5548703;32;34957;-86
2022/07/04 04:05:27;;;;;;;7.30;5.65;;;;;;;21.54;59.54;100362.25;5548818;32;35074;-86
2022/07/04 04:08:29;;;;;;;5.93;5.12;;;;;;;21.51;59.53;100366.09;5548927;32;34171;-86
2022/07/04 04:11:32;;;;;;;6.25;5.65;;;;;;;21.54;59.36;100363.06;5548695;32;33900;-86
2022/07/04 04:14:34;;;;;;;5.95;5.30;;;;;;;21.63;59.44;100366.72;5548465;32;34596;-86
2022/07/04 04:17:37;;;;;;;5.97;5.40;;;;;;;21.74;59.31;100375.69;5549122;32;34309;-86
2022/07/04 04:20:40;;;;;;;5.85;5.35;;;;;;;21.90;58.69;100377.72;5549574;32;33990;-86
2022/07/04 04:23:43;;;;;;;5.90;5.30;;;;;;;22.10;58.57;100377.59;5549306;32;34657;-86
2022/07/04 04:26:45;;;;;;;5.97;5.47;;;;;;;22.15;57.86;100373.47;5550390;32;34003;-85
2022/07/04 04:29:48;;;;;;;6.10;5.40;;;;;;;22.25;57.67;100370.69;5543105;32;215703;-89
2022/07/04 04:32:51;;;;;;;8.27;5.25;;;;;;;22.37;57.56;100375.87;5550440;32;33782;-89
2022/07/04 04:35:53;;;;;;;5.85;5.35;;;;;;;22.54;56.34;100379.59;5560796;32;35151;-89
2022/07/04 04:38:56;;;;;;;6.78;5.85;;;;;;;22.73;55.71;100367.78;5552357;32;34012;-90
2022/07/04 04:42:01;;;;;;;6.00;5.40;;;;;;;22.84;55.10;100372.91;5556133;32;33916;-86
2022/07/04 04:45:04;;;;;;;7.55;5.70;;;;;;;22.88;55.70;100368.91;5550526;32;33860;-86
2022/07/04 04:48:07;;;;;;;7.80;5.60;;;;;;;22.94;55.40;100363.88;5549784;32;33815;-86
2022/07/04 04:51:10;;;;;;;6.45;5.78;;;;;;;23.09;54.71;100361.44;5549760;32;33843;-86
2022/07/04 04:54:12;;;;;;;8.30;5.40;;;;;;;23.14;55.04;100357.25;5557740;32;34103;-87
2022/07/04 04:57:15;;;;;;;6.28;5.57;;;;;;;23.36;54.84;100354.19;5564968;31;35260;-87
2022/07/04 05:00:18;;;;;;;9.57;6.03;;;;;;;23.51;54.30;100349.88;5559945;32;35277;-86
2022/07/04 05:03:20;;;;;;;6.03;5.43;;;;;;;23.71;54.39;100352.31;5552520;32;34655;-86
2022/07/04 05:06:23;;;;;;;7.70;6.30;;;;;;;23.91;52.62;100346.63;5549040;32;35506;-86
2022/07/04 05:09:26;;;;;;;8.75;6.03;;;;;;;24.03;52.57;100350.72;5549401;32;34484;-87
2022/07/04 05:12:29;;;;;;;7.20;5.45;;;;;;;24.30;51.21;100356.06;5562905;32;33973;-87
2022/07/04 05:15:32;;;;;;;8.05;6.10;;;;;;;24.62;50.51;100354.38;5562978;32;35424;-87
2022/07/04 05:18:34;;;;;;;10.25;5.72;;;;;;;24.92;49.80;100352.03;5553492;32;33853;-87
2022/07/04 05:21:37;;;;;;;7.18;6.25;;;;;;;25.38;48.41;100353.28;5550931;32;34027;-87
2022/07/04 05:24:40;;;;;;;6.97;5.68;;;;;;;27.16;44.13;100358.94;5550384;32;34063;-86
2022/07/04 05:27:43;;;;;;;8.05;5.95;;;;;;;30.81;36.27;100367.22;5550255;32;33965;-87
2022/07/04 05:30:46;;;;;;;8.25;5.53;;;;;;;32.75;31.56;100363.06;5550378;32;33912;-87
2022/07/04 05:33:48;;;;;;;5.82;5.10;;;;;;;34.94;28.42;100360.72;5554859;32;34048;-86
2022/07/04 05:36:51;;;;;;;6.62;4.97;;;;;;;36.31;26.59;100365.19;5562617;32;35235;-87
2022/07/04 05:39:56;;;;;;;6.25;4.70;;;;;;;37.88;23.59;100370.84;5561693;32;35562;-86
2022/07/04 05:42:59;;;;;;;8.38;4.80;;;;;;;39.35;22.73;100376.47;5556700;32;34175;-86
2022/07/04 05:46:03;;;;;;;7.75;4.90;;;;;;;39.18;21.98;100374.72;5550210;32;33873;-87
2022/07/04 05:49:06;;;;;;;5.28;4.37;;;;;;;37.88;23.20;100376.37;5551977;32;35169;-87
2022/07/04 05:52:08;;;;;;;7.00;4.03;;;;;;;38.84;21.97;100372.25;5550674;32;33995;-87
2022/07/04 05:55:11;;;;;;;4.25;3.95;;;;;;;38.48;22.10;100366.41;5550115;32;34293;-87
2022/07/04 05:58:13;;;;;;;4.95;4.20;;;;;;;40.82;20.25;100368.19;5550392;32;33978;-87
2022/07/04 06:01:16;;;;;;;5.07;3.78;;;;;;;37.84;22.97;100369.66;5551000;32;33602;-87
2022/07/04 06:04:19;;;;;;;5.45;3.80;;;;;;;40.26;19.85;100367.88;5554667;32;34605;-87
2022/07/04 06:07:22;;;;;;;3.95;3.55;;;;;;;39.70;20.83;100363.88;5540122;32;33091;-87
2022/07/04 06:10:25;;;;;;;4.10;3.70;;;;;;;41.96;18.23;100367.78;5561605;32;34114;-87
2022/07/04 06:13:27;;;;;;;6.37;3.72;;;;;;;41.80;18.47;100364.25;5564791;32;35738;-87
2022/07/04 06:16:30;;;;;;;3.80;3.50;;;;;;;43.05;17.28;100372.47;5558278;32;34555;-87
2022/07/04 06:19:33;;;;;;;4.82;3.65;;;;;;;43.76;16.57;100365.44;5550055;32;34506;-87
2022/07/04 06:22:43;;;;;;;8.15;3.83;;;;;;;41.51;18.79;100367.72;5549372;32;33747;-87
2022/07/04 06:25:45;;;;;;;3.70;3.37;;;;;;;44.61;16.37;100361.88;5550926;32;34270;-87
2022/07/04 06:28:48;;;;;;;5.70;3.62;;;;;;;42.49;17.76;100368.22;5548786;32;33963;-87
2022/07/04 06:31:51;;;;;;;6.75;3.37;;;;;;;42.55;17.82;100367.09;5550277;32;34181;-87
2022/07/04 06:38:19;;;;;;;4.80;3.05;;;;;;;40.71;19.17;100361.78;5550515;32;33286;-87
2022/07/04 06:51:46;;;;;;;7.65;3.10;;;;;;;38.78;21.59;100349.22;5560067;32;138851;-86
2022/07/04 06:54:50;;;;;;;3.00;2.80;;;;;;;38.78;21.59;100349.22;5543894;32;33528;-87
2022/07/04 06:57:52;;;;;;;4.15;2.60;;;;;;;36.73;22.98;100366.75;5543672;32;33695;-86
2022/07/04 07:00:55;;;;;;;3.42;2.50;;;;;;;36.39;23.12;100370.31;5544044;32;34673;-86
2022/07/04 07:03:58;;;;;;;3.97;2.50;;;;;;;36.44;22.72;100364.88;5544584;32;33576;-87
2022/07/04 07:07:01;;;;;;;2.60;2.40;;;;;;;36.33;22.12;100355.59;5543938;32;34416;-86
2022/07/04 07:10:06;;;;;;;2.40;2.30;;;;;;;37.22;21.66;100363.34;5544642;32;34452;-86
2022/07/04 07:13:10;;;;;;;2.33;2.10;;;;;;;37.25;21.31;100360.06;5544668;32;33812;-86
2022/07/04 07:16:13;;;;;;;2.90;2.12;;;;;;;36.67;21.95;100361.16;5545064;32;35069;-86
2022/07/04 07:19:16;;;;;;;3.45;1.90;;;;;;;35.47;23.07;100360.81;5544383;32;33711;-86
2022/07/04 07:22:20;;;;;;;2.67;1.92;;;;;;;35.54;23.18;100359.84;5545157;32;33966;-86
2022/07/04 07:25:22;;;;;;;2.00;1.85;;;;;;;35.40;22.49;100367.53;5544147;32;33617;-86
2022/07/04 07:28:25;;;;;;;2.15;1.98;;;;;;;35.26;22.95;100362.28;5543683;32;33735;-86
2022/07/04 07:31:28;;;;;;;2.30;2.10;;;;;;;35.39;22.32;100365.87;5544528;32;33747;-87
2022/07/04 07:34:31;;;;;;;2.92;2.30;;;;;;;35.17;22.57;100350.78;5543414;32;34382;-86
2022/07/04 07:37:33;;;;;;;3.62;2.10;;;;;;;35.51;22.28;100366.69;5543745;32;33811;-86
2022/07/04 07:40:36;;;;;;;2.83;1.83;;;;;;;35.78;21.24;100365.31;5544551;32;34172;-86
2022/07/04 07:43:39;;;;;;;3.90;2.17;;;;;;;35.63;22.39;100365.84;5544148;32;33486;-86
2022/07/04 07:46:42;;;;;;;2.37;2.15;;;;;;;34.97;22.61;100364.91;5545042;32;34644;-86
2022/07/04 07:49:47;;;;;;;2.17;2.08;;;;;;;35.68;22.14;100363.16;5544031;32;35140;-86
2022/07/04 07:52:51;;;;;;;2.17;1.90;;;;;;;35.66;22.17;100363.44;5543940;32;33779;-86
2022/07/04 07:55:54;;;;;;;2.62;2.10;;;;;;;35.70;21.50;100355.50;5544559;32;33275;-86
2022/07/04 07:58:57;;;;;;;2.50;1.90;;;;;;;36.09;21.44;100360.38;5543180;32;32715;-86
2022/07/04 08:01:59;;;;;;;1.98;1.85;;;;;;;36.66;21.63;100364.97;5545119;32;35409;-86
2022/07/04 08:05:03;;;;;;;2.08;1.70;;;;;;;36.58;21.32;100364.56;5543609;32;33895;-90
2022/07/04 08:08:07;;;;;;;3.03;1.67;;;;;;;36.36;20.93;100360.62;5543042;32;34362;-89
2022/07/04 08:11:11;;;;;;;3.72;1.80;;;;;;;36.50;21.26;100355.59;5541910;32;35240;-90
2022/07/04 08:14:13;;;;;;;1.90;1.80;;;;;;;37.01;20.49;100354.75;5533674;32;34096;-87
2022/07/04 08:17:16;;;;;;;3.08;1.80;;;;;;;37.02;20.09;100347.28;5531322;32;33992;-87
2022/07/04 08:20:19;;;;;;;2.08;1.73;;;;;;;37.37;19.77;100351.66;5531066;32;34320;-87
2022/07/04 08:23:22;;;;;;;3.83;1.95;;;;;;;36.66;20.78;100350.34;5531511;32;33044;-86
2022/07/04 08:26:25;;;;;;;2.03;1.90;;;;;;;37.35;20.37;100346.38;5532437;32;33752;-86
2022/07/04 08:29:31;;;;;;;5.22;2.10;;;;;;;38.01;19.70;100343.84;5530863;32;33934;-87
2022/07/04 08:32:34;;;;;;;1.75;1.65;;;;;;;38.33;19.20;100347.72;5530080;32;32642;-86
2022/07/04 08:35:36;;;;;;;1.87;1.77;;;;;;;37.38;19.48;100342.25;5533381;32;35108;-86
2022/07/04 08:38:39;;;;;;;1.85;1.75;;;;;;;38.12;19.38;100350.31;5534413;32;34157;-86
2022/07/04 08:41:42;;;;;;;2.08;1.87;;;;;;;38.48;19.42;100347.88;5535496;32;32616;-86
2022/07/04 08:44:48;;;;;;;2.53;1.77;;;;;;;38.71;18.58;100339.47;5539915;32;34499;-86
2022/07/04 08:47:54;;;;;;;2.08;1.98;;;;;;;36.87;19.74;100348.75;5539847;32;35196;-86
2022/07/04 08:51:03;;;;;;;1.90;1.70;;;;;;;37.60;18.92;100342.28;5534727;32;33309;-86
2022/07/04 08:58:25;;;;;;;1.87;1.75;;;;;;;37.80;19.48;100351.09;5529949;32;34205;-87
2022/07/04 09:01:00;;;;;;;1.83;1.70;;;;;;;37.72;18.54;100350.47;5529814;32;34369;-87
2022/07/04 09:04:04;;;;;;;1.58;1.48;;;;;;;36.79;19.40;100352.75;5537670;32;33568;-87
2022/07/04 09:07:07;;;;;;;2.00;1.80;;;;;;;38.24;18.44;100351.00;5540237;32;34886;-86
2022/07/04 09:10:10;;;;;;;1.75;1.65;;;;;;;37.11;19.15;100348.56;5534668;32;34521;-87
2022/07/04 09:13:14;;;;;;;1.83;1.73;;;;;;;38.42;18.43;100343.41;5528983;32;34868;-86
2022/07/04 09:16:17;;;;;;;5.18;1.92;;;;;;;38.21;18.46;100342.37;5529707;32;34336;-87
2022/07/04 09:19:21;;;;;;;3.22;2.00;;;;;;;38.72;17.51;100332.81;5529939;32;34300;-86
2022/07/04 09:22:26;;;;;;;2.03;1.62;;;;;;;38.53;17.76;100330.47;5529861;32;34751;-86
2022/07/04 09:25:29;;;;;;;1.90;1.80;;;;;;;38.38;17.87;100322.84;5529610;32;34945;-87
2022/07/04 09:28:32;;;;;;;1.90;1.80;;;;;;;39.81;17.01;100330.59;5528540;32;33518;-86
2022/07/04 09:31:37;;;;;;;2.42;2.22;;;;;;;39.43;17.16;100339.91;5528597;32;32730;-86
2022/07/04 09:34:54;;;;;;;4.32;2.00;;;;;;;39.17;17.05;100344.50;5529185;32;34089;-86
2022/07/04 09:37:59;;;;;;;2.72;2.10;;;;;;;38.96;17.38;100331.31;5528259;32;32624;-87
2022/07/04 09:44:26;;;;;;;3.90;2.03;;;;;;;39.80;17.45;100321.41;5529254;32;34061;-87
2022/07/04 09:47:29;;;;;;;2.72;2.15;;;;;;;40.19;17.38;100320.09;5528451;32;32490;-87
2022/07/04 09:50:32;;;;;;;2.22;2.10;;;;;;;41.37;16.28;100323.00;5528614;32;33616;-87
2022/07/04 09:53:34;;;;;;;3.85;2.17;;;;;;;42.12;15.69;100314.78;5530499;32;33872;-86
2022/07/04 09:56:45;;;;;;;4.35;2.10;;;;;;;41.36;16.07;100318.53;5530577;32;33610;-87
2022/07/04 09:59:47;;;;;;;2.15;1.92;;;;;;;39.86;16.88;100322.28;5531928;32;33880;-86
2022/07/04 10:02:57;;;;;;;;;;;;;;;40.05;16.52;100308.72;5531500;32;34997;-86
2022/07/04 10:06:06;;;;;;;2.42;2.00;;;;;;;38.65;17.69;100308.94;5530374;32;34842;-87
2022/07/04 10:09:09;;;;;;;2.45;2.20;;;;;;;39.95;17.33;100298.44;5529135;32;34689;-87
2022/07/04 10:12:25;;;;;;;3.05;2.33;;;;;;;39.00;17.94;100311.41;5529249;32;34161;-87
2022/07/04 10:15:29;;;;;;;2.28;2.17;;;;;;;40.21;17.20;100306.75;5529066;32;35027;-85
2022/07/04 10:18:34;;;;;;;5.25;2.30;;;;;;;40.62;17.09;100297.56;5531080;32;34509;-85
2022/07/04 10:21:36;;;;;;;2.20;2.00;;;;;;;40.13;17.31;100299.84;5531168;32;34442;-86
2022/07/04 10:24:39;;;;;;;2.37;2.17;;;;;;;38.89;19.01;100294.69;5529909;32;34168;-85
2022/07/04 10:27:42;;;;;;;2.97;1.83;;;;;;;39.72;17.14;100297.81;5530067;32;34285;-86
2022/07/04 10:30:57;;;;;;;2.35;2.03;;;;;;;42.26;15.06;100292.62;5529664;32;33848;-85
2022/07/04 10:34:03;;;;;;;1.87;1.77;;;;;;;42.68;14.71;100282.75;5530074;32;34158;-86
2022/07/04 10:37:06;;;;;;;1.80;1.70;;;;;;;42.16;14.31;100272.09;5530026;32;34801;-86
2022/07/04 10:40:09;;;;;;;1.83;1.73;;;;;;;41.19;15.58;100266.84;5531320;32;33636;-86
2022/07/04 10:43:37;;;;;;;2.33;1.85;;;;;;;39.61;16.58;100269.22;5530440;32;33577;-86
2022/07/04 10:46:45;;;;;;;2.62;1.80;;;;;;;39.63;16.60;100268.94;5528652;32;32408;-86
2022/07/04 10:49:48;;;;;;;2.30;2.15;;;;;;;40.06;16.19;100265.94;5529378;32;34572;-86
2022/07/04 10:53:10;;;;;;;2.08;1.85;;;;;;;38.80;17.13;100265.78;5529124;32;33867;-86
2022/07/04 10:56:35;;;;;;;1.65;1.55;;;;;;;39.75;16.47;100252.84;5529192;32;32695;-86
2022/07/04 10:59:39;;;;;;;1.85;1.45;;;;;;;37.93;17.52;100253.78;5537127;32;32534;-86
2022/07/04 11:02:42;;;;;;;1.77;1.67;;;;;;;38.54;17.71;100260.97;5538453;32;33876;-86
2022/07/04 11:05:45;;;;;;;5.15;1.65;;;;;;;39.22;16.38;100259.34;5537242;32;34417;-86
2022/07/04 11:09:10;;;;;;;1.42;1.33;;;;;;;39.11;15.87;100249.34;5534493;32;34786;-86
2022/07/04 11:12:14;;;;;;;4.37;1.50;;;;;;;40.03;15.68;100236.78;5527046;32;32426;-88
2022/07/04 11:15:18;;;;;;;1.48;1.33;;;;;;;40.49;15.31;100242.59;5528609;32;33653;-90
2022/07/04 11:18:22;;;;;;;1.40;1.40;;;;;;;38.91;16.74;100250.87;5529506;32;33820;-90
2022/07/04 11:21:25;;;;;;;2.28;1.55;;;;;;;39.25;16.06;100244.13;5528628;32;33241;-91
2022/07/04 11:24:28;;;;;;;1.52;1.45;;;;;;;38.50;16.17;100248.69;5529757;32;33007;-90
2022/07/04 11:27:31;;;;;;;2.92;1.90;;;;;;;38.66;16.19;100229.44;5534132;32;34715;-89
2022/07/04 11:30:34;;;;;;;1.20;1.20;;;;;;;37.52;17.26;100211.88;5529615;32;34494;-90
2022/07/04 11:33:38;;;;;;;3.47;1.45;;;;;;;37.84;16.13;100225.75;5528873;32;34195;-89
2022/07/04 11:36:44;;;;;;;1.85;1.45;;;;;;;37.71;16.45;100217.91;5531094;32;33827;-92
2022/07/04 11:45:02;;;;;;;1.50;1.40;;;;;;;37.64;16.14;100208.97;5533545;32;33961;-91
